ADDS METAR Data INFO
IDs: Format: Raw Decoded Include TAF

Data at: 1050 UTC 18 Aug 2017

KSOA 181035Z AUTO 17007G13KT 10SM CLR 25/21 A3008 RMK AO2
KSOA 181015Z AUTO 18006KT 10SM CLR 25/22 A3008 RMK AO2
KSOA 180955Z AUTO 00000KT 10SM CLR 25/22 A3007 RMK AO2
KSOA 180935Z AUTO 00000KT 10SM CLR 25/21 A3007 RMK AO2
KSOA 180915Z AUTO 00000KT 10SM CLR 25/21 A3007 RMK AO2
KSOA 180855Z AUTO 00000KT 10SM CLR 24/21 A3007 RMK AO2
KSOA 180835Z AUTO 00000KT 10SM CLR 25/21 A3007 RMK AO2
KSOA 180815Z AUTO 00000KT 10SM CLR 24/21 A3007 RMK AO2
KSOA 180755Z AUTO 00000KT 10SM CLR 24/21 A3007 RMK AO2
KSOA 180735Z AUTO 00000KT 10SM CLR 24/21 A3008 RMK AO2
KSOA 180715Z AUTO 00000KT 10SM CLR 24/21 A3008 RMK AO2
KSOA 180655Z AUTO 00000KT 10SM CLR 24/21 A3009 RMK AO2
KSOA 180635Z AUTO 00000KT 10SM CLR 23/21 A3010 RMK AO2
KSOA 180615Z AUTO 00000KT 10SM CLR 24/21 A3010 RMK AO2
KSOA 180555Z AUTO 00000KT 10SM CLR 24/21 A3010 RMK AO2
KSOA 180535Z AUTO 00000KT 10SM CLR 24/21 A3011 RMK AO2
KSOA 180515Z AUTO 00000KT 10SM CLR 23/21 A3012 RMK AO2
KSOA 180455Z AUTO 00000KT 10SM CLR 24/21 A3013 RMK AO2
KSOA 180435Z AUTO 01003KT 10SM CLR 24/21 A3015 RMK AO2
KSOA 180415Z AUTO 03004KT 10SM CLR 24/21 A3016 RMK AO2
KSOA 180355Z AUTO 00000KT 10SM CLR 25/20 A3016 RMK AO2
KSOA 180335Z AUTO 04005KT 10SM VCTS CLR 25/20 A3015 RMK AO2 LTG DSNT NW
KSOA 180310Z AUTO 32009G15KT 10SM CLR 25/21 A3015 RMK AO2 LTG DSNT NW
KSOA 180255Z AUTO 02006KT 10SM CLR 26/20 A3013 RMK AO2
KSOA 180235Z AUTO 04007KT 10SM CLR 26/20 A3011 RMK AO2 LTG DSNT W AND NW
KSOA 180215Z AUTO 03010KT 10SM VCTS CLR 26/20 A3011 RMK AO2 LTG DSNT NW
KSOA 180155Z AUTO 36008KT 10SM VCTS FEW070 FEW085 26/20 A3010 RMK AO2 LTG DSNT W-NE
KSOA 180135Z AUTO 02008G15KT 10SM TS BKN065 26/20 A3010 RMK AO2 LTG DSNT W-N
KSOA 180115Z AUTO 01008G13KT 10SM VCTS SCT070 SCT075 26/20 A3009 RMK AO2 LTG DSNT ALQDS
KSOA 180055Z AUTO 05007G20KT 10SM TS FEW070 27/20 A3006 RMK AO2 LTG DSNT SW-NW
KSOA 180035Z AUTO 05015G23KT 10SM SCT070 30/20 A3005 RMK AO2 LTG DSNT ALQDS
KSOA 180015Z AUTO 06009G14KT 10SM SCT070 SCT080 32/20 A3003 RMK AO2 LTG DSNT E
KSOA 172355Z AUTO 15004KT 10SM CLR 34/17 A3002 RMK AO2 LTG DSNT W-NE
KSOA 172335Z AUTO 14007KT 10SM CLR 35/16 A3001 RMK AO2
KSOA 172315Z AUTO VRB04G10KT 10SM VCTS CLR 34/17 A3001 RMK AO2 LTG DSNT NE
KSOA 172255Z AUTO 14007KT 10SM CLR 34/17 A3002 RMK AO2 LTG DSNT NE
KSOA 172235Z AUTO 00000G10KT 10SM FEW065 34/17 A3001 RMK AO2
KSOA 172215Z AUTO 17007G13KT 10SM FEW065 35/18 A3001 RMK AO2
KSOA 172155Z AUTO VRB06G11KT 10SM CLR 35/18 A3001 RMK AO2
KSOA 172135Z AUTO 16010KT 10SM FEW045 FEW060 FEW070 34/19 A3002 RMK AO2
KSOA 172115Z AUTO 20008G14KT 10SM CLR 35/18 A3003 RMK AO2
KSOA 172055Z AUTO VRB06KT 10SM CLR 34/18 A3003 RMK AO2
KSOA 172035Z AUTO 17008KT 10SM CLR 34/19 A3004 RMK AO2
KSOA 172015Z AUTO 21007KT 180V280 10SM CLR 34/19 A3006 RMK AO2
KSOA 171955Z AUTO 20009KT 10SM FEW055 33/20 A3007 RMK AO2
KSOA 171935Z AUTO 20008KT 10SM CLR 33/21 A3009 RMK AO2
KSOA 171915Z AUTO 19007KT 150V210 10SM FEW045 FEW060 FEW100 33/21 A3010 RMK AO2
KSOA 171855Z AUTO 20005G11KT 10SM FEW047 FEW060 FEW110 33/22 A3011 RMK AO2
KSOA 171835Z AUTO VRB03G11KT 10SM FEW041 FEW050 FEW075 32/22 A3011 RMK AO2
KSOA 171815Z AUTO 18007KT 10SM CLR 32/22 A3012 RMK AO2
KSOA 171755Z AUTO 00000G10KT 10SM CLR 31/22 A3012 RMK AO2
KSOA 171735Z AUTO 20007KT 10SM CLR 31/23 A3013 RMK AO2
KSOA 171715Z AUTO 19007KT 10SM CLR 30/23 A3013 RMK AO2
KSOA 171655Z AUTO 16007KT 130V200 10SM CLR 30/23 A3013 RMK AO2
KSOA 171635Z AUTO 17005G12KT 10SM CLR 29/22 A3013 RMK AO2
KSOA 171615Z AUTO 19007KT 10SM CLR 29/22 A3013 RMK AO2
KSOA 171555Z AUTO 17009KT 10SM FEW021 28/22 A3012 RMK AO2
KSOA 171535Z AUTO 17007KT 10SM SCT018 28/22 A3012 RMK AO2
KSOA 171515Z AUTO 19007KT 10SM BKN017 27/23 A3012 RMK AO2
KSOA 171455Z AUTO 17010KT 10SM BKN016 27/23 A3012 RMK AO2
KSOA 171435Z AUTO 16010KT 10SM SCT014 26/23 A3011 RMK AO2
KSOA 171415Z AUTO 17009G14KT 10SM FEW013 26/23 A3011 RMK AO2
KSOA 171355Z AUTO 17008G13KT 9SM CLR 26/23 A3011 RMK AO2
KSOA 171335Z AUTO 17007KT 9SM CLR 25/23 A3010 RMK AO2
KSOA 171315Z AUTO 17006KT 9SM CLR 25/23 A3010 RMK AO2
KSOA 171255Z AUTO 00000KT 9SM CLR 25/23 A3010 RMK AO2
KSOA 171235Z AUTO 16006KT 10SM CLR 25/23 A3009 RMK AO2
KSOA 171215Z AUTO 00000KT 10SM CLR 25/23 A3008 RMK AO2
KSOA 171155Z AUTO 17005KT 10SM CLR 25/23 A3008 RMK AO2
KSOA 171135Z AUTO 17004KT 10SM CLR 25/23 A3008 RMK AO2
KSOA 171115Z AUTO 00000KT 10SM CLR 25/23 A3007 RMK AO2
KSOA 171055Z AUTO 00000KT 10SM CLR 25/22 A3007 RMK AO2
KSOA 171035Z AUTO 00000KT 10SM CLR 25/22 A3007 RMK AO2
KSOA 171015Z AUTO 00000KT 10SM CLR 24/21 A3007 RMK AO2
KSOA 170955Z AUTO 00000KT 10SM CLR 24/20 A3006 RMK AO2
KSOA 170935Z AUTO 00000KT 10SM CLR 24/20 A3006 RMK AO2
KSOA 170915Z AUTO 00000KT 10SM CLR 24/20 A3006 RMK AO2
KSOA 170855Z AUTO 00000KT 10SM CLR 23/20 A3007 RMK AO2
KSOA 170835Z AUTO 00000KT 10SM CLR 23/19 A3007 RMK AO2
KSOA 170815Z AUTO 00000KT 10SM FEW026 24/19 A3007 RMK AO2
KSOA 170755Z AUTO 00000KT 10SM FEW031 24/20 A3007 RMK AO2
KSOA 170735Z AUTO 03005KT 10SM BKN032 24/20 A3008 RMK AO2
KSOA 170715Z AUTO 06005KT 10SM BKN035 25/20 A3008 RMK AO2
KSOA 170655Z AUTO 05006G14KT 10SM BKN036 BKN042 BKN065 26/20 A3008 RMK AO2
KSOA 170635Z AUTO 02005KT 10SM BKN065 26/21 A3009 RMK AO2
KSOA 170615Z AUTO 35010KT 10SM CLR 25/21 A3008 RMK AO2
KSOA 170555Z AUTO 00000KT 10SM CLR 25/21 A3004 RMK AO2 LTG DSNT N AND NE
KSOA 170535Z AUTO 00000KT 10SM CLR 25/21 A3003 RMK AO2 LTG DSNT N
KSOA 170515Z AUTO 00000KT 10SM CLR 25/21 A3003 RMK AO2 LTG DSNT N
KSOA 170455Z AUTO 00000KT 10SM CLR 25/21 A3003 RMK AO2 LTG DSNT N
KSOA 170435Z AUTO 00000KT 10SM CLR 26/20 A3002 RMK AO2 LTG DSNT N
KSOA 170415Z AUTO 00000KT 10SM CLR 26/20 A3001 RMK AO2 LTG DSNT N
KSOA 170355Z AUTO 00000KT 10SM CLR 26/20 A3002 RMK AO2
KSOA 170335Z AUTO 00000KT 10SM CLR 27/19 A3001 RMK AO2
KSOA 170315Z AUTO 00000KT 10SM CLR 28/19 A3001 RMK AO2
KSOA 170255Z AUTO 16005KT 10SM CLR 28/19 A3000 RMK AO2
KSOA 170235Z AUTO 18006KT 10SM CLR 28/19 A2999 RMK AO2
KSOA 170215Z AUTO 20006KT 10SM CLR 28/20 A3000 RMK AO2
KSOA 170155Z AUTO 19006KT 10SM CLR 29/19 A3000 RMK AO2
KSOA 170135Z AUTO VRB05KT 10SM CLR 29/20 A3000 RMK AO2
KSOA 170115Z AUTO 18006KT 10SM CLR 30/20 A2999 RMK AO2 LTG DSNT E AND SW
KSOA 170055Z AUTO 16007KT 10SM CLR 30/20 A2999 RMK AO2 LTG DSNT E-SW
KSOA 170035Z AUTO 17006KT 10SM CLR 31/21 A2997 RMK AO2 LTG DSNT E AND SW
KSOA 170015Z AUTO 16009KT 10SM CLR 32/22 A2996 RMK AO2 LTG DSNT SE AND S
KSOA 162355Z AUTO 00000KT 10SM VCTS CLR 32/22 A2995 RMK AO2 LTG DSNT E-S
KSOA 162335Z AUTO 00000KT 10SM CLR 32/22 A2995 RMK AO2 LTG DSNT NE AND S AND SW
KSOA 162315Z AUTO 00000KT 10SM CLR 32/22 A2995 RMK AO2 LTG DSNT S
KSOA 162255Z AUTO 17004KT 10SM CLR 32/23 A2996 RMK AO2